Time;durP1;ratioP1;P1;durP2;ratioP2;P2;SDS_P1;SDS_P2;PMS_P1;PMS_P2;Temp;Humidity;BMP_temperature;BMP_pressure;BME280_temperature;BME280_humidity;BME280_pressure;Samples;Min_cycle;Max_cycle;Signal;HPM_P1;HPM_P2
2022/06/15 00:02:30;;;;;;;3.23;2.80;;;;;15.30;101365.00;;;;5042114;28;20752;-67
2022/06/15 00:05:16;;;;;;;5.67;2.90;;;;;15.30;101360.00;;;;5041433;28;20283;-67
2022/06/15 00:08:02;;;;;;;4.03;2.77;;;;;15.30;101370.00;;;;5045626;28;20226;-67
2022/06/15 00:10:48;;;;;;;5.90;2.83;;;;;15.30;101351.00;;;;5046929;28;20212;-67
2022/06/15 00:13:35;;;;;;;3.97;2.60;;;;;15.30;101358.00;;;;5046223;28;20221;-67
2022/06/15 00:16:22;;;;;;;6.63;2.90;;;;;15.30;101365.00;;;;5045720;28;20299;-67
2022/06/15 00:19:10;;;;;;;6.97;2.83;;;;;15.30;101357.00;;;;5047236;28;20221;-66
2022/06/15 00:21:57;;;;;;;5.17;2.77;;;;;15.30;101345.00;;;;5040985;28;20733;-67
2022/06/15 00:24:43;;;;;;;5.00;2.63;;;;;15.40;101346.00;;;;5043746;28;20209;-67
2022/06/15 00:27:29;;;;;;;7.93;2.87;;;;;15.40;101346.00;;;;5048729;28;20261;-67
2022/06/15 00:30:15;;;;;;;4.33;2.77;;;;;15.40;101361.00;;;;5044681;28;20209;-67
2022/06/15 00:33:01;;;;;;;4.23;2.90;;;;;15.40;101329.00;;;;5045625;28;20268;-67
2022/06/15 00:35:56;;;;;;;4.33;2.70;;;;;15.30;101349.00;;;;5037914;28;20240;-67
2022/06/15 00:38:44;;;;;;;8.07;2.87;;;;;15.20;101340.00;;;;5044963;28;20210;-67
2022/06/15 00:41:33;;;;;;;6.50;2.80;;;;;15.10;101355.00;;;;5044881;28;20211;-67
2022/06/15 00:44:36;;;;;;;6.40;2.83;;;;;15.10;101356.00;;;;5046344;28;20208;-67
2022/06/15 00:47:25;;;;;;;4.40;2.70;;;;;15.10;101346.00;;;;5038623;28;20212;-68
2022/06/15 00:50:16;;;;;;;6.73;2.70;;;;;15.10;101348.00;;;;5036396;28;20225;-69
2022/06/15 00:53:07;;;;;;;6.03;3.20;;;;;15.20;101352.00;;;;5032138;28;20370;-67
2022/06/15 00:55:54;;;;;;;6.53;2.97;;;;;15.20;101342.00;;;;5032257;28;20733;-67
2022/06/15 00:58:44;;;;;;;4.00;3.00;;;;;15.10;101344.00;;;;5036757;28;20897;-67
2022/06/15 01:01:31;;;;;;;7.90;2.80;;;;;15.10;101352.00;;;;5043747;28;20209;-68
2022/06/15 01:04:19;;;;;;;7.27;3.00;;;;;15.10;101349.00;;;;5042763;28;20212;-67
2022/06/15 01:07:13;;;;;;;4.67;2.70;;;;;15.00;101343.00;;;;5041479;28;20247;-69
2022/06/15 01:10:12;;;;;;;5.83;2.77;;;;;15.00;101343.00;;;;5042429;28;20267;-67
2022/06/15 01:13:08;;;;;;;4.97;2.70;;;;;15.00;101337.00;;;;5041653;28;20268;-68
2022/06/15 01:16:04;;;;;;;3.47;2.40;;;;;15.00;101340.00;;;;5036422;28;20743;-68
2022/06/15 01:19:00;;;;;;;3.73;2.67;;;;;15.00;101346.00;;;;5040375;28;20213;-67
2022/06/15 01:21:51;;;;;;;5.27;2.90;;;;;15.00;101334.00;;;;5048530;28;20223;-68
2022/06/15 01:24:55;;;;;;;4.73;2.70;;;;;15.00;101333.00;;;;5048036;28;20204;-67
2022/06/15 01:28:06;;;;;;;5.20;3.00;;;;;14.90;101337.00;;;;5040151;28;20979;-68
2022/06/15 01:30:58;;;;;;;4.67;2.63;;;;;14.90;101340.00;;;;5036927;28;20321;-67
2022/06/15 01:33:59;;;;;;;5.17;3.17;;;;;15.00;101337.00;;;;5045386;28;20835;-67
2022/06/15 01:36:51;;;;;;;4.90;2.77;;;;;15.20;101330.00;;;;5043976;28;20214;-66
2022/06/15 01:39:44;;;;;;;3.93;2.90;;;;;15.10;101330.00;;;;5043973;28;20220;-67
2022/06/15 01:42:35;;;;;;;3.47;2.60;;;;;15.00;101330.00;;;;5040223;28;20229;-67
2022/06/15 01:45:25;;;;;;;4.47;2.60;;;;;14.90;101329.00;;;;5039403;28;20677;-67
2022/06/15 01:48:15;;;;;;;6.07;3.10;;;;;14.90;101334.00;;;;5040671;28;20236;-67
2022/06/15 01:51:06;;;;;;;3.67;2.83;;;;;14.90;101324.00;;;;5048917;28;20232;-67
2022/06/15 01:53:57;;;;;;;6.83;2.80;;;;;14.90;101326.00;;;;5038399;28;20234;-67
2022/06/15 01:56:46;;;;;;;6.57;2.80;;;;;14.80;101318.00;;;;5038152;28;20260;-67
2022/06/15 01:59:36;;;;;;;5.27;3.07;;;;;14.70;101328.00;;;;5044025;28;20213;-66
2022/06/15 02:02:28;;;;;;;3.50;3.00;;;;;14.80;101321.00;;;;5040020;28;20737;-67
2022/06/15 02:05:19;;;;;;;5.77;2.60;;;;;14.80;101321.00;;;;5043988;28;20206;-67
2022/06/15 02:08:15;;;;;;;3.50;2.80;;;;;14.70;101333.00;;;;5042594;28;20222;-68
2022/06/15 02:11:08;;;;;;;4.30;3.10;;;;;14.80;101331.00;;;;5043603;28;20210;-66
2022/06/15 02:14:00;;;;;;;4.23;2.93;;;;;14.70;101321.00;;;;5047333;28;20233;-67
2022/06/15 02:16:53;;;;;;;10.07;3.30;;;;;14.60;101323.00;;;;5048291;28;20222;-67
2022/06/15 02:19:42;;;;;;;7.37;2.80;;;;;14.60;101320.00;;;;5040387;28;20295;-67
2022/06/15 02:22:33;;;;;;;6.03;2.60;;;;;14.40;101319.00;;;;5038251;28;20773;-68
2022/06/15 02:25:24;;;;;;;5.57;3.13;;;;;14.40;101313.00;;;;5048008;28;20265;-67
2022/06/15 02:28:11;;;;;;;3.50;2.80;;;;;14.40;101309.00;;;;5037932;28;20224;-67
2022/06/15 02:30:58;;;;;;;5.00;3.13;;;;;14.30;101317.00;;;;5050111;28;20220;-67
2022/06/15 02:33:48;;;;;;;5.97;3.33;;;;;14.30;101310.00;;;;5048409;28;20663;-67
2022/06/15 02:36:35;;;;;;;4.73;2.93;;;;;14.20;101306.00;;;;5046183;28;20212;-67
2022/06/15 02:39:23;;;;;;;6.47;3.07;;;;;14.20;101309.00;;;;5048784;28;20710;-66
2022/06/15 02:42:26;;;;;;;3.00;2.70;;;;;14.10;101310.00;;;;5044520;28;20372;-67
2022/06/15 02:45:17;;;;;;;4.43;2.83;;;;;14.10;101302.00;;;;5039858;28;20229;-67
2022/06/15 02:48:06;;;;;;;3.10;2.80;;;;;14.10;101311.00;;;;5042146;28;20340;-68
2022/06/15 02:50:55;;;;;;;4.07;2.63;;;;;14.20;101310.00;;;;5043116;28;20251;-67
2022/06/15 02:53:43;;;;;;;4.00;2.90;;;;;14.10;101306.00;;;;5047248;28;20237;-68
2022/06/15 02:56:32;;;;;;;4.13;2.50;;;;;14.10;101298.00;;;;5037478;28;20284;-68
2022/06/15 02:59:19;;;;;;;3.20;2.90;;;;;14.00;101307.00;;;;5046185;28;20208;-68
2022/06/15 03:02:05;;;;;;;4.37;3.03;;;;;14.10;101313.00;;;;5037075;28;20299;-67
2022/06/15 03:04:52;;;;;;;4.27;2.77;;;;;14.10;101310.00;;;;5045470;28;20208;-67
2022/06/15 03:07:38;;;;;;;4.53;3.23;;;;;14.00;101303.00;;;;5042379;28;20212;-69
2022/06/15 03:10:24;;;;;;;5.00;2.80;;;;;14.10;101301.00;;;;5042773;28;20232;-68
2022/06/15 03:13:12;;;;;;;3.17;2.73;;;;;14.00;101303.00;;;;5042354;28;20237;-68
2022/06/15 03:15:59;;;;;;;9.73;2.90;;;;;14.00;101302.00;;;;5051670;28;20276;-68
2022/06/15 03:18:46;;;;;;;5.30;2.63;;;;;14.00;101309.00;;;;5048218;28;20221;-68
2022/06/15 03:21:32;;;;;;;6.00;3.00;;;;;14.00;101308.00;;;;5044615;28;20635;-69
2022/06/15 03:24:20;;;;;;;4.03;2.93;;;;;14.00;101308.00;;;;5047133;28;20216;-67
2022/06/15 03:27:06;;;;;;;4.33;2.53;;;;;13.80;101298.00;;;;5039144;28;20212;-69
2022/06/15 03:29:54;;;;;;;5.50;2.90;;;;;13.80;101306.00;;;;5047186;28;20306;-67
2022/06/15 03:32:41;;;;;;;4.80;3.00;;;;;13.80;101301.00;;;;5046234;28;20354;-67
2022/06/15 03:35:34;;;;;;;4.23;2.83;;;;;13.80;101299.00;;;;5047479;28;20209;-68
2022/06/15 03:38:20;;;;;;;4.67;2.87;;;;;13.80;101297.00;;;;5044443;28;20205;-68
2022/06/15 03:41:06;;;;;;;4.13;2.80;;;;;13.80;101291.00;;;;5046315;28;20227;-68
2022/06/15 03:43:53;;;;;;;6.03;3.00;;;;;13.90;101298.00;;;;5045371;28;20340;-68
2022/06/15 03:46:41;;;;;;;5.90;3.00;;;;;13.90;101298.00;;;;5044878;28;20306;-68
2022/06/15 03:49:27;;;;;;;5.57;3.00;;;;;13.90;101290.00;;;;5052102;28;20583;-68
2022/06/15 03:52:13;;;;;;;6.77;3.00;;;;;13.90;101300.00;;;;5041906;28;20232;-68
2022/06/15 03:54:59;;;;;;;8.83;3.47;;;;;14.00;101291.00;;;;5041504;28;20212;-67
2022/06/15 03:57:46;;;;;;;7.23;3.60;;;;;14.00;101288.00;;;;5047077;28;20209;-68
2022/06/15 04:00:34;;;;;;;5.23;2.90;;;;;14.00;101292.00;;;;5046651;28;20352;-68
2022/06/15 04:03:22;;;;;;;3.23;2.80;;;;;14.00;101291.00;;;;5043106;28;20264;-67
2022/06/15 04:06:08;;;;;;;7.43;3.23;;;;;14.00;101298.00;;;;5039612;28;20280;-68
2022/06/15 04:08:55;;;;;;;4.20;2.90;;;;;14.10;101289.00;;;;5039983;28;20352;-68
2022/06/15 04:11:59;;;;;;;6.47;3.10;;;;;14.10;101297.00;;;;5043831;28;20363;-67
2022/06/15 04:14:45;;;;;;;3.57;3.10;;;;;14.20;101306.00;;;;5044892;28;20232;-67
2022/06/15 04:17:32;;;;;;;6.23;2.83;;;;;14.30;101303.00;;;;5044239;28;20228;-68
2022/06/15 04:20:36;;;;;;;10.67;3.47;;;;;14.30;101301.00;;;;5042900;28;20272;-68
2022/06/15 04:23:23;;;;;;;5.03;3.03;;;;;14.40;101298.00;;;;5043984;28;20845;-68
2022/06/15 04:26:10;;;;;;;3.50;3.20;;;;;14.40;101295.00;;;;5044188;28;20848;-68
2022/06/15 04:28:57;;;;;;;4.80;3.23;;;;;14.40;101306.00;;;;5042141;28;20721;-68
2022/06/15 04:31:43;;;;;;;5.50;3.20;;;;;14.40;101304.00;;;;5042072;28;20231;-68
2022/06/15 04:34:30;;;;;;;4.93;2.73;;;;;14.40;101301.00;;;;5042803;28;20295;-68
2022/06/15 04:37:17;;;;;;;3.30;3.00;;;;;14.40;101301.00;;;;5043384;28;20212;-68
2022/06/15 04:40:04;;;;;;;5.17;2.87;;;;;14.50;101302.00;;;;5043259;28;20248;-68
2022/06/15 04:42:50;;;;;;;4.80;2.90;;;;;14.60;101294.00;;;;5046011;28;20606;-68
2022/06/15 04:45:37;;;;;;;5.17;3.67;;;;;14.60;101304.00;;;;5046253;28;20209;-68
2022/06/15 04:48:24;;;;;;;5.80;2.97;;;;;14.70;101295.00;;;;5044079;28;20209;-68
2022/06/15 04:51:12;;;;;;;7.30;3.43;;;;;14.70;101297.00;;;;5039035;28;20224;-69
2022/06/15 04:54:00;;;;;;;5.13;2.90;;;;;14.90;101298.00;;;;5052353;28;20318;-68
2022/06/15 04:56:47;;;;;;;5.33;2.90;;;;;14.80;101290.00;;;;5049488;28;20273;-67
2022/06/15 04:59:33;;;;;;;4.07;2.87;;;;;14.80;101291.00;;;;5042016;28;20665;-67
2022/06/15 05:02:19;;;;;;;4.57;3.07;;;;;14.90;101301.00;;;;5036160;28;20228;-68
2022/06/15 05:05:07;;;;;;;4.90;2.77;;;;;14.90;101303.00;;;;5042136;28;20273;-68
2022/06/15 05:07:53;;;;;;;5.93;3.00;;;;;15.20;101303.00;;;;5044724;28;20215;-67
2022/06/15 05:10:41;;;;;;;6.20;3.10;;;;;15.30;101305.00;;;;5044103;28;20605;-69
2022/06/15 05:13:27;;;;;;;7.57;3.13;;;;;15.10;101308.00;;;;5044939;28;21015;-68
2022/06/15 05:16:14;;;;;;;6.17;3.27;;;;;15.20;101304.00;;;;5043443;28;20213;-68
2022/06/15 05:19:01;;;;;;;7.50;3.23;;;;;15.20;101305.00;;;;5041688;28;20789;-68
2022/06/15 05:21:47;;;;;;;6.10;3.37;;;;;15.20;101300.00;;;;5045121;28;20225;-69
2022/06/15 05:24:33;;;;;;;5.20;3.10;;;;;15.30;101306.00;;;;5035193;28;20210;-69
2022/06/15 05:27:21;;;;;;;6.60;3.20;;;;;15.40;101296.00;;;;5041491;28;20220;-68
2022/06/15 05:30:08;;;;;;;5.07;3.10;;;;;15.40;101299.00;;;;5047641;28;20295;-68
2022/06/15 05:32:55;;;;;;;6.73;3.27;;;;;15.40;101306.00;;;;5041877;28;20724;-67
2022/06/15 05:35:40;;;;;;;7.93;3.47;;;;;15.60;101302.00;;;;5044926;28;20838;-67
2022/06/15 05:38:27;;;;;;;6.67;3.50;;;;;15.80;101296.00;;;;5043626;28;20332;-68
2022/06/15 05:41:14;;;;;;;7.47;3.40;;;;;15.70;101301.00;;;;5049232;28;20312;-67
2022/06/15 05:44:01;;;;;;;8.47;3.60;;;;;15.80;101307.00;;;;5046912;28;20272;-68
2022/06/15 05:46:48;;;;;;;4.43;3.10;;;;;15.90;101296.00;;;;5047747;28;20298;-68
2022/06/15 05:49:34;;;;;;;6.10;3.30;;;;;16.10;101305.00;;;;5050460;28;20307;-68
2022/06/15 05:52:21;;;;;;;5.27;3.40;;;;;16.00;101306.00;;;;5038620;28;20276;-68
2022/06/15 05:55:08;;;;;;;4.13;3.10;;;;;16.00;101306.00;;;;5035686;28;20798;-68
2022/06/15 05:57:54;;;;;;;6.40;3.40;;;;;16.10;101304.00;;;;5056223;28;20827;-68
2022/06/15 06:00:42;;;;;;;6.03;3.30;;;;;16.20;101301.00;;;;5046107;28;20211;-68
2022/06/15 06:03:28;;;;;;;6.60;3.37;;;;;16.20;101306.00;;;;5043216;28;20379;-68
2022/06/15 06:06:15;;;;;;;4.90;3.17;;;;;16.20;101300.00;;;;5048526;28;20337;-67
2022/06/15 06:09:01;;;;;;;6.60;3.47;;;;;16.30;101301.00;;;;5049031;28;20243;-68
2022/06/15 06:11:49;;;;;;;5.10;3.40;;;;;16.40;101304.00;;;;5045414;28;20950;-68
2022/06/15 06:14:37;;;;;;;3.67;3.10;;;;;16.30;101301.00;;;;5045640;28;20217;-68
2022/06/15 06:17:25;;;;;;;4.20;3.07;;;;;16.50;101296.00;;;;5045922;28;20205;-67
2022/06/15 06:20:12;;;;;;;4.30;3.27;;;;;16.60;101302.00;;;;5049674;28;20758;-68
2022/06/15 06:22:58;;;;;;;3.30;2.67;;;;;16.60;101304.00;;;;5049488;28;20233;-68
2022/06/15 06:25:46;;;;;;;4.23;3.10;;;;;16.80;101285.00;;;;5046866;28;20210;-68
2022/06/15 06:28:34;;;;;;;5.63;3.20;;;;;16.90;101303.00;;;;5037678;28;20216;-68
2022/06/15 06:31:21;;;;;;;5.20;3.10;;;;;16.90;101303.00;;;;5047736;28;20232;-68
2022/06/15 06:34:10;;;;;;;4.33;3.17;;;;;16.90;101315.00;;;;5037748;28;20214;-67
2022/06/15 06:36:56;;;;;;;4.07;3.00;;;;;16.90;101303.00;;;;5043482;28;20220;-68
2022/06/15 06:39:43;;;;;;;4.17;3.10;;;;;17.00;101306.00;;;;5040743;28;20291;-67
2022/06/15 06:42:29;;;;;;;5.60;3.20;;;;;17.10;101301.00;;;;5044363;28;20239;-68
2022/06/15 06:45:16;;;;;;;7.57;3.27;;;;;17.30;101306.00;;;;5045878;28;20756;-68
2022/06/15 06:48:02;;;;;;;4.87;3.10;;;;;17.40;101308.00;;;;5047157;28;20212;-67
2022/06/15 06:50:52;;;;;;;9.43;3.37;;;;;17.30;101306.00;;;;5045216;28;20219;-68
2022/06/15 06:53:38;;;;;;;5.53;3.27;;;;;17.50;101306.00;;;;5047907;28;20617;-68
2022/06/15 06:56:25;;;;;;;4.20;3.00;;;;;17.60;101312.00;;;;5043237;28;20205;-68
2022/06/15 06:59:13;;;;;;;4.00;2.97;;;;;17.60;101304.00;;;;5042505;28;20208;-66
2022/06/15 07:02:00;;;;;;;6.23;3.37;;;;;17.70;101306.00;;;;5048116;28;20610;-67
2022/06/15 07:04:47;;;;;;;8.40;3.03;;;;;17.70;101320.00;;;;5047506;28;20297;-70
2022/06/15 07:07:34;;;;;;;4.53;3.03;;;;;17.80;101315.00;;;;5049033;28;20313;-68
2022/06/15 07:10:21;;;;;;;4.27;2.90;;;;;17.90;101321.00;;;;5045676;28;20238;-69
2022/06/15 07:13:08;;;;;;;4.23;3.27;;;;;18.00;101322.00;;;;5051783;28;20229;-69
2022/06/15 07:15:54;;;;;;;9.10;2.93;;;;;18.30;101320.00;;;;5045241;28;20209;-68
2022/06/15 07:18:42;;;;;;;7.33;2.90;;;;;18.30;101332.00;;;;5052250;28;20204;-68
2022/06/15 07:21:29;;;;;;;6.27;3.20;;;;;18.50;101329.00;;;;5039397;28;20583;-69
2022/06/15 07:24:16;;;;;;;8.57;3.03;;;;;18.60;101330.00;;;;5041674;28;20580;-69
2022/06/15 07:27:03;;;;;;;5.27;2.97;;;;;18.60;101321.00;;;;5041992;28;20337;-69
2022/06/15 07:29:52;;;;;;;4.80;2.70;;;;;18.70;101325.00;;;;5046784;28;20208;-70
2022/06/15 07:32:39;;;;;;;5.80;2.70;;;;;19.00;101326.00;;;;5043999;28;20232;-70
2022/06/15 07:35:29;;;;;;;4.60;3.20;;;;;19.20;101333.00;;;;5039537;28;20218;-68
2022/06/15 07:38:15;;;;;;;5.10;2.80;;;;;19.20;101325.00;;;;5042048;28;20221;-69
2022/06/15 07:41:19;;;;;;;3.63;2.30;;;;;19.20;101330.00;;;;5048011;28;20339;-69
2022/06/15 07:44:06;;;;;;;5.37;2.73;;;;;19.30;101331.00;;;;5046965;28;20209;-69
2022/06/15 07:49:54;;;;;;;4.23;2.90;;;;;19.50;101340.00;;;;5046400;28;20213;-69
2022/06/15 07:49:59;;;;;;;3.90;2.80;;;;;19.80;101332.00;;;;5046828;28;20208;-68
2022/06/15 07:53:09;;;;;;;4.97;2.97;;;;;20.10;101329.00;;;;5046918;28;20803;-69
2022/06/15 07:55:56;;;;;;;10.10;5.63;;;;;20.20;101326.00;;;;5047302;28;20356;-69
2022/06/15 07:58:44;;;;;;;5.00;3.00;;;;;20.30;101324.00;;;;5047809;28;20220;-69
2022/06/15 08:01:30;;;;;;;4.53;3.07;;;;;20.40;101331.00;;;;5045381;28;20208;-69
2022/06/15 08:04:17;;;;;;;6.03;2.90;;;;;20.50;101335.00;;;;5041548;28;20822;-69
2022/06/15 08:07:06;;;;;;;5.47;3.00;;;;;20.60;101331.00;;;;5047644;28;20208;-68
2022/06/15 08:09:53;;;;;;;3.40;2.87;;;;;20.60;101331.00;;;;5047486;28;20212;-69
2022/06/15 08:12:40;;;;;;;4.80;2.80;;;;;20.80;101328.00;;;;5047707;28;20769;-68
2022/06/15 08:15:28;;;;;;;6.27;3.30;;;;;20.80;101323.00;;;;5033675;28;20217;-69
2022/06/15 08:18:17;;;;;;;5.17;2.60;;;;;20.90;101339.00;;;;5042581;28;20217;-70
2022/06/15 08:21:06;;;;;;;6.33;3.00;;;;;20.90;101329.00;;;;5035839;28;20374;-69
2022/06/15 08:23:55;;;;;;;5.73;2.97;;;;;21.30;101320.00;;;;5037114;28;20634;-70
2022/06/15 08:26:43;;;;;;;8.63;3.30;;;;;21.30;101329.00;;;;5030827;28;20237;-71
2022/06/15 08:29:32;;;;;;;3.07;2.77;;;;;21.40;101329.00;;;;5039309;28;20209;-68
2022/06/15 08:32:20;;;;;;;4.43;2.80;;;;;21.50;101331.00;;;;5042362;28;20336;-68
2022/06/15 08:35:08;;;;;;;5.63;2.83;;;;;21.50;101327.00;;;;5046124;28;20390;-68
2022/06/15 08:37:54;;;;;;;4.27;2.70;;;;;21.80;101333.00;;;;5040851;28;20861;-68
2022/06/15 08:40:49;;;;;;;6.80;2.73;;;;;21.80;101327.00;;;;5043498;28;20236;-69
2022/06/15 08:43:52;;;;;;;6.10;3.17;;;;;21.90;101330.00;;;;5045519;28;20775;-70
2022/06/15 08:46:50;;;;;;;10.50;3.00;;;;;22.10;101325.00;;;;5042973;28;20224;-69
2022/06/15 08:49:48;;;;;;;8.10;2.83;;;;;22.10;101327.00;;;;5040601;28;20236;-67
2022/06/15 08:52:40;;;;;;;5.17;2.80;;;;;22.20;101337.00;;;;5040420;28;20229;-68
2022/06/15 08:55:35;;;;;;;4.53;2.70;;;;;22.10;101324.00;;;;5045193;28;20348;-68
2022/06/15 08:58:26;;;;;;;4.73;2.83;;;;;22.30;101331.00;;;;5053094;28;20717;-69
2022/06/15 09:01:19;;;;;;;3.67;2.90;;;;;22.70;101329.00;;;;5040213;28;20213;-69
2022/06/15 09:04:19;;;;;;;4.10;3.07;;;;;22.70;101330.00;;;;5045171;28;20229;-69
2022/06/15 09:07:23;;;;;;;4.13;3.07;;;;;22.50;101333.00;;;;5045179;28;20208;-69
2022/06/15 09:10:28;;;;;;;4.37;2.87;;;;;22.80;101330.00;;;;5045146;28;20219;-66
2022/06/15 09:13:29;;;;;;;5.97;2.83;;;;;23.10;101336.00;;;;5042349;28;20307;-66
2022/06/15 09:16:24;;;;;;;5.73;2.70;;;;;23.20;101338.00;;;;5046711;28;20202;-67
2022/06/15 09:19:14;;;;;;;3.37;2.70;;;;;23.20;101341.00;;;;5046412;28;20255;-67
2022/06/15 09:22:06;;;;;;;4.53;2.80;;;;;23.30;101346.00;;;;5044869;28;20327;-67
2022/06/15 09:25:01;;;;;;;4.40;2.80;;;;;23.60;101348.00;;;;5033585;28;20326;-69
2022/06/15 09:27:52;;;;;;;6.37;3.10;;;;;23.50;101343.00;;;;5038915;28;20214;-66
2022/06/15 09:30:42;;;;;;;2.93;2.47;;;;;23.80;101340.00;;;;5036334;28;20211;-66
2022/06/15 09:33:35;;;;;;;5.70;2.53;;;;;23.80;101337.00;;;;5029856;28;20241;-68
2022/06/15 09:36:26;;;;;;;6.60;2.90;;;;;23.80;101340.00;;;;5034136;28;20570;-66
2022/06/15 09:39:13;;;;;;;5.83;3.33;;;;;24.00;101342.00;;;;5038586;28;20724;-66
2022/06/15 09:42:10;;;;;;;6.90;2.90;;;;;24.20;101334.00;;;;5030718;28;20605;-65
2022/06/15 09:45:03;;;;;;;7.43;3.17;;;;;24.20;101335.00;;;;5036460;28;20216;-66
2022/06/15 09:47:58;;;;;;;7.50;3.10;;;;;24.30;101327.00;;;;5039296;28;20220;-66
2022/06/15 09:50:54;;;;;;;5.03;3.10;;;;;24.30;101336.00;;;;5031297;28;20292;-63
2022/06/15 09:53:49;;;;;;;4.80;3.30;;;;;24.20;101338.00;;;;5034190;28;20991;-65
2022/06/15 09:56:35;;;;;;;6.43;3.20;;;;;24.50;101343.00;;;;5044207;28;20209;-64
2022/06/15 09:59:25;;;;;;;5.97;3.10;;;;;24.40;101332.00;;;;5031952;28;20934;-67
2022/06/15 10:02:20;;;;;;;4.97;3.20;;;;;24.30;101328.00;;;;5051433;28;20236;-65
2022/06/15 10:05:16;;;;;;;5.93;2.60;;;;;24.50;101330.00;;;;5036883;28;20291;-65
2022/06/15 10:08:04;;;;;;;5.50;3.43;;;;;24.60;101319.00;;;;5037755;28;20214;-66
2022/06/15 10:10:54;;;;;;;8.50;3.27;;;;;24.90;101327.00;;;;5037815;28;20206;-64
2022/06/15 10:13:41;;;;;;;4.53;2.90;;;;;24.90;101327.00;;;;5039080;28;20281;-66
2022/06/15 10:16:33;;;;;;;4.53;3.17;;;;;25.30;101316.00;;;;5038955;28;20347;-66
2022/06/15 10:19:20;;;;;;;9.27;5.93;;;;;25.60;101309.00;;;;5045575;28;20209;-67
2022/06/15 10:22:10;;;;;;;7.70;4.00;;;;;25.70;101318.00;;;;5046406;28;20919;-67
2022/06/15 10:24:58;;;;;;;5.33;3.23;;;;;25.70;101309.00;;;;5047685;28;20348;-66
2022/06/15 10:27:45;;;;;;;4.03;3.23;;;;;26.00;101310.00;;;;5045744;28;20213;-67
2022/06/15 10:30:31;;;;;;;4.80;3.70;;;;;26.10;101316.00;;;;5054776;28;20208;-67
2022/06/15 10:33:19;;;;;;;6.00;3.57;;;;;26.10;101317.00;;;;5044417;28;20312;-67
2022/06/15 10:36:19;;;;;;;5.73;3.30;;;;;25.70;101318.00;;;;5045918;28;20213;-67
2022/06/15 10:39:13;;;;;;;5.33;3.17;;;;;26.00;101317.00;;;;5045628;28;20610;-67
2022/06/15 10:42:19;;;;;;;7.20;3.20;;;;;26.10;101319.00;;;;5054368;28;20932;-67
2022/06/15 10:45:08;;;;;;;7.23;2.97;;;;;26.30;101312.00;;;;5044280;28;20284;-67
2022/06/15 10:47:59;;;;;;;6.63;3.40;;;;;26.20;101329.00;;;;5046639;28;20242;-67
2022/06/15 10:50:56;;;;;;;7.03;2.87;;;;;26.00;101314.00;;;;5038857;28;20216;-68
2022/06/15 10:54:15;;;;;;;5.73;3.00;;;;;26.00;101312.00;;;;5038229;28;20238;-67
2022/06/15 11:03:33;;;;;;;7.13;3.07;;;;;26.30;101308.00;;;;5033918;28;20241;-67
2022/06/15 11:06:21;;;;;;;5.37;2.93;;;;;26.60;101300.00;;;;5033107;28;20205;-68
2022/06/15 11:09:22;;;;;;;5.20;2.70;;;;;26.70;101302.00;;;;5035481;28;20328;-67
2022/06/15 11:12:23;;;;;;;9.40;3.20;;;;;26.70;101295.00;;;;5036316;28;20229;-67
2022/06/15 11:18:01;;;;;;;6.23;3.13;;;;;26.70;101289.00;;;;5043486;28;20232;-66
2022/06/15 11:18:37;;;;;;;5.27;2.77;;;;;27.10;101293.00;;;;5042156;28;20224;-66
2022/06/15 11:21:28;;;;;;;4.43;3.23;;;;;27.00;101298.00;;;;5045609;28;20260;-67
2022/06/15 11:24:28;;;;;;;8.00;3.20;;;;;27.10;101300.00;;;;5046567;28;20729;-66
2022/06/15 11:27:24;;;;;;;4.85;2.90;;;;;26.90;101292.00;;;;5044523;28;20454;-66
2022/06/15 11:30:20;;;;;;;8.15;3.10;;;;;27.00;101286.00;;;;5048959;28;20267;-66
2022/06/15 11:33:17;;;;;;;8.23;3.20;;;;;27.40;101294.00;;;;5047177;28;20236;-67
2022/06/15 11:36:12;;;;;;;6.47;3.45;;;;;27.50;101293.00;;;;5035911;28;20214;-66
2022/06/15 11:39:07;;;;;;;4.47;3.25;;;;;27.50;101287.00;;;;5042179;28;20221;-66
2022/06/15 11:41:55;;;;;;;3.20;2.90;;;;;27.70;101278.00;;;;5041088;28;20221;-66
2022/06/15 11:44:43;;;;;;;2.90;2.60;;;;;27.80;101282.00;;;;5040479;28;20212;-67
2022/06/15 11:47:50;;;;;;;4.45;2.90;;;;;27.80;101270.00;;;;5033845;28;20237;-68
2022/06/15 11:50:43;;;;;;;8.18;2.85;;;;;27.70;101265.00;;;;5042738;28;20684;-68
2022/06/15 11:53:43;;;;;;;4.22;2.80;;;;;27.60;101275.00;;;;5041031;28;20333;-68
2022/06/15 11:56:38;;;;;;;4.63;3.13;;;;;27.50;101276.00;;;;5044683;28;20205;-67
2022/06/15 11:59:32;;;;;;;4.63;2.90;;;;;27.70;101271.00;;;;5043228;28;20209;-67
2022/06/15 12:02:29;;;;;;;6.38;2.85;;;;;27.80;101277.00;;;;5041350;28;20252;-67
2022/06/15 12:05:31;;;;;;;4.15;2.70;;;;;27.90;101272.00;;;;5039649;28;20208;-65
2022/06/15 12:08:31;;;;;;;4.72;2.72;;;;;27.80;101270.00;;;;5046364;28;20943;-67
2022/06/15 12:14:36;;;;;;;5.35;2.88;;;;;28.40;101275.00;;;;5042423;28;20232;-65
2022/06/15 12:17:29;;;;;;;3.72;2.97;;;;;28.60;101272.00;;;;5045652;28;20263;-66
2022/06/15 12:20:23;;;;;;;9.82;2.72;;;;;28.50;101266.00;;;;5047032;28;20229;-65
2022/06/15 12:23:23;;;;;;;3.15;2.60;;;;;28.40;101258.00;;;;5045164;28;20229;-66
2022/06/15 12:26:23;;;;;;;6.07;2.75;;;;;28.60;101260.00;;;;5044620;28;20649;-65
2022/06/15 12:29:24;;;;;;;4.57;2.55;;;;;28.80;101265.00;;;;5043667;28;20208;-66
2022/06/15 12:32:34;;;;;;;5.32;3.08;;;;;28.60;101263.00;;;;5045826;28;20232;-66
2022/06/15 12:35:33;;;;;;;3.67;2.70;;;;;28.60;101259.00;;;;5044123;28;20607;-65
2022/06/15 12:38:29;;;;;;;3.83;2.58;;;;;28.90;101271.00;;;;5042919;28;20212;-66
2022/06/15 12:44:25;;;;;;;5.85;2.65;;;;;29.30;101261.00;;;;5045210;28;20281;-65
2022/06/15 12:47:14;;;;;;;2.90;2.65;;;;;29.40;101263.00;;;;5044741;28;20212;-66
2022/06/15 12:50:37;;;;;;;6.57;3.50;;;;;29.20;101269.00;;;;5040753;28;20263;-66
2022/06/15 12:53:33;;;;;;;3.75;2.78;;;;;29.00;101265.00;;;;5045009;28;20349;-67
2022/06/15 12:56:32;;;;;;;3.53;2.70;;;;;29.10;101255.00;;;;5043267;28;20618;-66
2022/06/15 12:59:51;;;;;;;5.93;3.35;;;;;29.10;101257.00;;;;5041904;28;20289;-69
2022/06/15 13:02:43;;;;;;;3.22;2.63;;;;;29.30;101254.00;;;;5037326;28;20280;-67
2022/06/15 13:05:32;;;;;;;7.75;2.80;;;;;29.40;101262.00;;;;5039562;28;20221;-67
2022/06/15 13:08:34;;;;;;;5.95;2.83;;;;;29.50;101262.00;;;;5044654;28;20287;-68
2022/06/15 13:11:20;;;;;;;3.67;2.63;;;;;29.80;101248.00;;;;5044717;28;20208;-68
2022/06/15 13:14:14;;;;;;;5.03;2.88;;;;;29.90;101245.00;;;;5043744;28;20714;-66
2022/06/15 13:17:12;;;;;;;5.90;2.50;;;;;29.90;101253.00;;;;5040835;28;20220;-69
2022/06/15 13:20:05;;;;;;;2.90;2.60;;;;;30.10;101245.00;;;;5041925;28;20581;-69
2022/06/15 13:22:51;;;;;;;7.05;2.63;;;;;30.20;101252.00;;;;5044386;28;20244;-69
2022/06/15 13:25:50;;;;;;;4.15;2.72;;;;;30.30;101252.00;;;;5045492;28;20227;-68
2022/06/15 13:28:40;;;;;;;3.45;2.70;;;;;30.60;101260.00;;;;5036041;28;20573;-67
2022/06/15 13:31:44;;;;;;;4.88;2.88;;;;;30.50;101252.00;;;;5036818;28;20948;-67
2022/06/15 13:34:46;;;;;;;5.85;2.60;;;;;30.40;101252.00;;;;5043856;28;20627;-68
2022/06/15 13:37:35;;;;;;;4.47;2.45;;;;;30.50;101249.00;;;;5039679;28;20204;-68
2022/06/15 13:40:21;;;;;;;4.07;2.47;;;;;31.00;101253.00;;;;5039695;28;20208;-67
2022/06/15 13:43:09;;;;;;;3.40;2.70;;;;;31.20;101252.00;;;;5047145;28;20788;-68
2022/06/15 13:45:58;;;;;;;7.90;2.60;;;;;31.00;101261.00;;;;5040147;28;20306;-68
2022/06/15 13:48:45;;;;;;;3.72;2.42;;;;;31.10;101255.00;;;;5040535;28;20356;-68
2022/06/15 13:51:37;;;;;;;3.45;2.53;;;;;31.30;101254.00;;;;5043257;28;20597;-69
2022/06/15 13:54:40;;;;;;;4.70;2.58;;;;;31.60;101250.00;;;;5044133;28;21637;-68
2022/06/15 13:57:41;;;;;;;4.50;2.50;;;;;31.80;101253.00;;;;5044900;28;20591;-69
2022/06/15 14:00:37;;;;;;;6.60;2.45;;;;;32.20;101255.00;;;;5048599;28;20208;-68
2022/06/15 14:03:28;;;;;;;3.35;2.50;;;;;32.20;101258.00;;;;5048064;28;20232;-68
2022/06/15 14:06:34;;;;;;;5.95;2.88;;;;;32.20;101250.00;;;;5045867;28;20216;-69
2022/06/15 14:09:28;;;;;;;5.95;2.50;;;;;32.30;101264.00;;;;5040824;28;20228;-68
2022/06/15 14:12:38;;;;;;;3.42;2.50;;;;;33.20;101249.00;;;;5048458;28;20364;-68
2022/06/15 14:15:55;;;;;;;3.35;2.60;;;;;33.00;101257.00;;;;5049362;28;20607;-69
2022/06/15 14:18:45;;;;;;;2.97;2.50;;;;;33.50;101250.00;;;;5045302;28;20295;-69
2022/06/15 14:21:36;;;;;;;7.10;4.40;;;;;34.00;101251.00;;;;5048532;28;20843;-68